Aviation Digital Data Service (ADDS)

Output produced by METARs form (0721 UTC 23 September 2017)
found at http://www.aviationweather.gov/adds/metars/
 
KAOO 230653Z AUTO 00000KT 10SM CLR 15/12 A3012 RMK AO2 SLP189 T01500122
KAOO 230553Z AUTO 00000KT 10SM CLR 15/12 A3012 RMK AO2 SLP192 T01500122 10200 20139 51004
KAOO 230453Z AUTO 00000KT 10SM CLR 16/13 A3012 RMK AO2 SLP191 T01610128 403000122
KAOO 230353Z AUTO 00000KT 10SM CLR 16/13 A3012 RMK AO2 SLP191 T01560128
KAOO 230253Z AUTO 09003KT 10SM CLR 18/13 A3011 RMK AO2 SLP189 T01780133 53009
KAOO 230153Z AUTO 00000KT 10SM CLR 17/14 A3010 RMK AO2 SLP188 T01720139
KAOO 230053Z AUTO 16005KT 10SM CLR 18/14 A3009 RMK AO2 SLP184 T01830144
KAOO 222353Z AUTO 08004KT 10SM CLR 20/13 A3008 RMK AO2 SLP183 T02000133 10300 20200 55001
KAOO 222253Z AUTO 36005KT 10SM CLR 23/14 A3008 RMK AO2 SLP181 T02280139
KAOO 222153Z AUTO 01005KT 10SM CLR 27/13 A3008 RMK AO2 SLP178 T02720128
KAOO 222053Z AUTO 02006KT 10SM CLR 29/12 A3009 RMK AO2 SLP178 T02940122 58009
KAOO 221953Z AUTO 01006KT 10SM CLR 29/12 A3010 RMK AO2 SLP182 T02940117
KAOO 221853Z AUTO 01007KT 10SM CLR 29/13 A3011 RMK AO2 SLP185 T02890133
KAOO 221753Z AUTO 35005KT 10SM CLR 27/13 A3012 RMK AO2 SLP189 T02720128 10272 20144 58012
KAOO 221653Z AUTO 36007KT 10SM CLR 26/14 A3014 RMK AO2 SLP196 T02610139
KAOO 221553Z AUTO VRB04KT 10SM CLR 25/17 A3015 RMK AO2 SLP200 T02500167
KAOO 221453Z AUTO 00000KT 10SM CLR 23/17 A3015 RMK AO2 SLP203 T02280172 58001
KAOO 221353Z AUTO 00000KT 10SM CLR 20/16 A3016 RMK AO2 SLP208 T02000161
KAOO 221253Z AUTO 00000KT 9SM CLR 18/16 A3016 RMK AO2 SLP206 T01780161
KAOO 221153Z AUTO 00000KT 5SM BR CLR 14/14 A3016 RMK AO2 SLP208 T01440144 10156 20122 53008
KAOO 221127Z AUTO 00000KT 3SM BR CLR 13/13 A3015 RMK AO2 T01330133
KAOO 221111Z AUTO 00000KT 2SM BR CLR 13/13 A3015 RMK AO2 T01280128
KAOO 221053Z AUTO 00000KT 4SM BR CLR 12/12 A3015 RMK AO2 SLP205 T01220122
KAOO 220953Z AUTO 00000KT 9SM CLR 14/13 A3014 RMK AO2 SLP198 T01390133
KAOO 220853Z AUTO 00000KT 8SM CLR 14/14 A3013 RMK AO2 SLP196 T01440139 55002
KAOO 220753Z AUTO 00000KT 8SM CLR 14/14 A3013 RMK AO2 SLP193 T01390139
KAOO 220653Z AUTO 00000KT 10SM CLR 15/14 A3013 RMK AO2 SLP195 T01500144
KAOO 220553Z AUTO 00000KT 10SM CLR 16/14 A3014 RMK AO2 SLP196 T01560144 10194 20150 53001
KAOO 220453Z AUTO 00000KT 10SM CLR 16/15 A3013 RMK AO2 SLP194 T01610150 402780128 TSNO
KAOO 220353Z AUTO 30003KT 10SM CLR 17/15 A3013 RMK AO2 SLP196 T01670150
KAOO 220253Z AUTO 00000KT 10SM CLR 16/15 A3013 RMK AO2 SLP198 T01560150 51009
KAOO 220153Z AUTO 00000KT 10SM CLR 17/15 A3013 RMK AO2 SLP197 T01670150
KAOO 220053Z AUTO 00000KT 10SM CLR 18/16 A3012 RMK AO2 SLP194 T01830156
KAOO 212353Z AUTO 00000KT 10SM CLR 18/16 A3010 RMK AO2 SLP191 T01830161 10278 20183 53002
KAOO 212253Z AUTO 00000KT 10SM CLR 22/17 A3010 RMK AO2 SLP187 T02170167
KAOO 212153Z AUTO 03004KT 10SM CLR 26/16 A3009 RMK AO2 SLP182 T02610156
KAOO 212053Z AUTO VRB03KT 10SM CLR 27/14 A3010 RMK AO2 SLP184 T02670144 56008
KAOO 211953Z AUTO 07004KT 10SM CLR 28/14 A3010 RMK AO2 SLP185 T02780144